createdAt,value
2019-06-26T00:00:32.229Z,100445.88
2019-06-26T00:03:05.473Z,100435.64
2019-06-26T00:05:38.522Z,100433.55
2019-06-26T00:08:11.567Z,100432.80
2019-06-26T00:10:44.785Z,100428.79
2019-06-26T00:13:26.315Z,100431.13
2019-06-26T00:15:52.633Z,100429.27
2019-06-26T00:18:25.715Z,100421.38
2019-06-26T00:20:58.835Z,100425.62
2019-06-26T00:23:31.854Z,100424.27
2019-06-26T00:26:05.063Z,100425.62
2019-06-26T00:28:38.190Z,100421.70
2019-06-26T00:31:11.373Z,100422.78
2019-06-26T00:33:44.565Z,100421.07
2019-06-26T00:36:17.651Z,100419.50
2019-06-26T00:38:50.859Z,100415.22
2019-06-26T00:41:23.989Z,100416.19
2019-06-26T00:43:57.017Z,100420.20
2019-06-26T00:46:30.061Z,100417.15
2019-06-26T00:49:03.180Z,100412.02
2019-06-26T00:51:36.303Z,100410.30
2019-06-26T00:54:09.414Z,100411.64
2019-06-26T00:56:42.485Z,100406.91
2019-06-26T00:59:15.496Z,100405.91
2019-06-26T01:01:48.549Z,100400.80
2019-06-26T01:04:32.235Z,100394.48
2019-06-26T01:07:05.313Z,100387.41
2019-06-26T01:09:38.362Z,100392.40
2019-06-26T01:12:11.394Z,100391.06
2019-06-26T01:14:44.413Z,100383.51
2019-06-26T01:17:17.511Z,100383.03
2019-06-26T01:19:50.554Z,100381.31
2019-06-26T01:22:23.629Z,100379.68
2019-06-26T01:24:56.636Z,100376.15
2019-06-26T01:27:29.749Z,100373.58
2019-06-26T01:30:03.424Z,100372.72
2019-06-26T01:32:36.880Z,100369.33
2019-06-26T01:35:09.996Z,100370.67
2019-06-26T01:37:43.122Z,100357.50
2019-06-26T01:40:16.595Z,100361.52
2019-06-26T01:42:49.820Z,100354.83
2019-06-26T01:45:22.905Z,100348.13
2019-06-26T01:47:55.984Z,100347.28
2019-06-26T01:50:29.006Z,100345.56
2019-06-26T01:53:02.183Z,100348.73
2019-06-26T01:55:35.219Z,100337.75
2019-06-26T01:58:08.317Z,100339.47
2019-06-26T02:00:41.479Z,100335.19
2019-06-26T02:03:14.685Z,100338.83
2019-06-26T02:05:47.801Z,100334.47
2019-06-26T02:08:20.977Z,100340.80
2019-06-26T02:10:54.088Z,100341.75
2019-06-26T02:13:27.344Z,100338.70
2019-06-26T02:16:00.489Z,100333.94
2019-06-26T02:18:38.081Z,100334.05
2019-06-26T02:21:11.257Z,100329.55
2019-06-26T02:23:44.359Z,100331.38
2019-06-26T02:26:17.448Z,100330.52
2019-06-26T02:28:50.502Z,100325.16
2019-06-26T02:31:23.544Z,100315.42
2019-06-26T02:33:56.679Z,100317.36
2019-06-26T02:36:29.733Z,100320.78
2019-06-26T02:39:02.828Z,100319.06
2019-06-26T02:41:36.122Z,100321.74
2019-06-26T02:44:09.266Z,100319.81
2019-06-26T02:46:42.282Z,100314.95
2019-06-26T02:49:15.319Z,100314.95
2019-06-26T02:51:48.356Z,100312.53
2019-06-26T02:54:21.418Z,100306.59
2019-06-26T02:56:54.436Z,100302.70
2019-06-26T02:59:27.541Z,100299.42
2019-06-26T03:02:00.606Z,100290.16
2019-06-26T03:04:33.685Z,100305.08
2019-06-26T03:07:06.951Z,100305.20
2019-06-26T03:09:40.036Z,100308.80
2019-06-26T03:12:13.060Z,100301.26
2019-06-26T03:14:46.213Z,100298.14
2019-06-26T03:17:19.213Z,100297.28
2019-06-26T03:19:52.298Z,100287.45
2019-06-26T03:22:25.351Z,100286.00
2019-06-26T03:24:58.406Z,100289.91
2019-06-26T03:27:31.590Z,100288.36
2019-06-26T03:30:06.070Z,100289.09
2019-06-26T03:32:39.143Z,100283.38
2019-06-26T03:35:12.340Z,100279.97
2019-06-26T03:37:45.541Z,100280.13
2019-06-26T03:40:18.843Z,100279.38
2019-06-26T03:42:51.904Z,100282.22
2019-06-26T03:45:26.396Z,100280.13
2019-06-26T03:47:59.827Z,100281.09
2019-06-26T03:50:32.883Z,100271.68
2019-06-26T03:53:05.945Z,100274.58
2019-06-26T03:55:39.864Z,100272.23
2019-06-26T03:58:12.953Z,100268.70
2019-06-26T04:00:46.212Z,100266.34
2019-06-26T04:03:19.287Z,100265.08
2019-06-26T04:05:52.496Z,100267.09
2019-06-26T04:08:25.596Z,100262.39
2019-06-26T04:10:58.684Z,100257.16
2019-06-26T04:13:31.705Z,100263.69
2019-06-26T04:16:05.048Z,100254.34
2019-06-26T04:18:38.053Z,100252.00
2019-06-26T04:21:11.131Z,100248.95
2019-06-26T04:23:44.198Z,100243.48
2019-06-26T04:26:17.436Z,100237.86
2019-06-26T04:28:50.815Z,100233.54
2019-06-26T04:31:23.995Z,100227.63
2019-06-26T04:33:57.115Z,100230.61
2019-06-26T04:36:30.191Z,100228.58
2019-06-26T04:39:03.739Z,100223.39
2019-06-26T04:41:36.882Z,100232.59
2019-06-26T04:44:09.996Z,100232.76
2019-06-26T04:46:43.071Z,100231.19
2019-06-26T04:49:16.159Z,100233.41
2019-06-26T04:51:49.200Z,100225.99
2019-06-26T04:54:22.362Z,100226.77
2019-06-26T04:56:55.652Z,100232.40
2019-06-26T04:59:28.717Z,100224.98
2019-06-26T05:02:01.800Z,100230.03
2019-06-26T05:04:34.833Z,100220.41
2019-06-26T05:07:07.949Z,100219.62
2019-06-26T05:09:40.966Z,100219.97
2019-06-26T05:12:14.084Z,100217.53
2019-06-26T05:14:47.134Z,100218.25
2019-06-26T05:17:20.149Z,100210.53
2019-06-26T05:19:53.254Z,100211.62
2019-06-26T05:22:26.314Z,100207.45
2019-06-26T05:24:59.471Z,100207.70
2019-06-26T05:27:33.437Z,100210.77
2019-06-26T05:30:07.403Z,100211.47
2019-06-26T05:32:42.011Z,100203.84
2019-06-26T05:35:15.359Z,100204.97
2019-06-26T05:37:48.626Z,100204.73
2019-06-26T05:40:21.820Z,100202.89
2019-06-26T05:42:54.858Z,100198.81
2019-06-26T05:45:28.012Z,100203.32
2019-06-26T05:48:01.134Z,100204.84
2019-06-26T05:50:34.220Z,100203.11
2019-06-26T05:53:07.289Z,100202.73
2019-06-26T05:55:40.523Z,100208.38
2019-06-26T05:58:13.681Z,100200.89
2019-06-26T06:00:51.432Z,100195.22
2019-06-26T06:03:24.562Z,100200.97
2019-06-26T06:05:57.697Z,100202.05
2019-06-26T06:08:30.843Z,100203.52
2019-06-26T06:11:03.897Z,100203.05
2019-06-26T06:13:36.987Z,100208.96
2019-06-26T06:16:10.093Z,100199.96
2019-06-26T06:18:43.111Z,100203.17
2019-06-26T06:21:16.150Z,100195.39
2019-06-26T06:23:49.227Z,100200.78
2019-06-26T06:26:22.667Z,100199.08
2019-06-26T06:28:55.708Z,100193.70
2019-06-26T06:31:28.760Z,100198.88
2019-06-26T06:34:01.838Z,100190.53
2019-06-26T06:36:35.004Z,100199.38
2019-06-26T06:39:08.182Z,100192.77
2019-06-26T06:41:43.338Z,100192.63
2019-06-26T06:44:15.955Z,100187.86
2019-06-26T06:47:02.826Z,100186.56
2019-06-26T06:49:23.794Z,100186.64
2019-06-26T06:51:56.860Z,100186.29
2019-06-26T06:54:29.974Z,100182.61
2019-06-26T06:57:04.924Z,100187.37
2019-06-26T06:59:38.018Z,100183.02
2019-06-26T07:02:11.197Z,100182.61
2019-06-26T07:04:44.273Z,100178.66
2019-06-26T07:07:17.531Z,100183.06
2019-06-26T07:09:50.591Z,100172.84
2019-06-26T07:12:23.664Z,100177.78
2019-06-26T07:14:56.804Z,100181.45
2019-06-26T07:17:29.865Z,100173.23
2019-06-26T07:20:03.316Z,100170.72
2019-06-26T07:22:36.623Z,100177.33
2019-06-26T07:25:10.393Z,100174.61
2019-06-26T07:27:43.678Z,100172.40
2019-06-26T07:30:16.833Z,100170.37
2019-06-26T07:32:49.979Z,100178.55
2019-06-26T07:35:23.181Z,100172.34
2019-06-26T07:38:00.006Z,100173.52
2019-06-26T07:40:31.342Z,100178.12
2019-06-26T07:43:04.507Z,100179.25
2019-06-26T07:45:37.784Z,100177.77
2019-06-26T07:48:10.884Z,100174.98
2019-06-26T07:50:43.970Z,100176.45
2019-06-26T07:53:17.062Z,100173.55
2019-06-26T07:55:50.070Z,100174.30
2019-06-26T07:58:23.180Z,100173.53
2019-06-26T08:00:56.227Z,100174.30
2019-06-26T08:03:29.779Z,100165.02
2019-06-26T08:06:02.827Z,100166.59
2019-06-26T08:08:35.909Z,100164.00
2019-06-26T08:11:08.951Z,100158.48
2019-06-26T08:13:42.205Z,100162.09
2019-06-26T08:16:15.359Z,100157.30
2019-06-26T08:18:48.556Z,100158.77
2019-06-26T08:21:21.555Z,100156.70
2019-06-26T08:23:54.837Z,100150.89
2019-06-26T08:26:27.923Z,100153.27
2019-06-26T08:29:01.011Z,100144.52
2019-06-26T08:31:34.205Z,100142.62
2019-06-26T08:34:07.352Z,100139.34
2019-06-26T08:36:40.827Z,100146.80
2019-06-26T08:39:14.052Z,100146.05
2019-06-26T08:41:47.085Z,100142.39
2019-06-26T08:44:20.206Z,100135.50
2019-06-26T08:46:53.311Z,100134.67
2019-06-26T08:49:26.721Z,100132.36
2019-06-26T08:52:00.206Z,100131.89
2019-06-26T08:54:33.375Z,100127.23
2019-06-26T08:57:06.415Z,100130.98
2019-06-26T08:59:39.568Z,100134.16
2019-06-26T09:02:12.685Z,100127.91
2019-06-26T09:04:45.765Z,100129.66
2019-06-26T09:07:18.989Z,100124.83
2019-06-26T09:09:52.362Z,100119.20
2019-06-26T09:12:25.424Z,100119.88
2019-06-26T09:14:58.593Z,100120.31
2019-06-26T09:17:31.825Z,100111.99
2019-06-26T09:20:07.771Z,100119.28
2019-06-26T09:22:40.852Z,100118.20
2019-06-26T09:25:21.469Z,100116.25
2019-06-26T09:27:48.714Z,100106.42
2019-06-26T09:30:21.916Z,100105.80
2019-06-26T09:32:55.077Z,100097.94
2019-06-26T09:35:28.290Z,100098.82
2019-06-26T09:38:01.637Z,100082.37
2019-06-26T09:40:34.718Z,100077.94
2019-06-26T09:43:07.856Z,100076.89
2019-06-26T09:45:40.916Z,100079.66
2019-06-26T09:48:14.078Z,100072.09
2019-06-26T09:50:47.171Z,100071.49
2019-06-26T09:53:20.307Z,100069.98
2019-06-26T09:55:53.608Z,100069.23
2019-06-26T09:58:26.655Z,100064.84
2019-06-26T10:00:59.916Z,100062.19
2019-06-26T10:03:33.007Z,100055.80
2019-06-26T10:06:06.119Z,100060.73
2019-06-26T10:08:39.259Z,100063.90
2019-06-26T10:11:12.411Z,100054.45
2019-06-26T10:13:45.543Z,100055.62
2019-06-26T10:16:18.589Z,100048.77
2019-06-26T10:19:05.710Z,100037.52
2019-06-26T10:21:26.488Z,100044.45
2019-06-26T10:24:00.749Z,100047.22
2019-06-26T10:26:34.041Z,100037.61
2019-06-26T10:29:07.281Z,100035.14
2019-06-26T10:31:40.419Z,100029.12
2019-06-26T10:34:13.531Z,100028.19
2019-06-26T10:36:46.597Z,100025.59
2019-06-26T10:39:19.709Z,100018.80
2019-06-26T10:41:54.998Z,100018.33
2019-06-26T10:44:27.635Z,100006.84
2019-06-26T10:47:00.715Z,99996.30
2019-06-26T10:49:33.893Z,99994.77
2019-06-26T10:52:07.003Z,99992.39
2019-06-26T10:54:43.989Z,99985.31
2019-06-26T10:57:14.878Z,99977.59
2019-06-26T10:59:48.227Z,99976.78
2019-06-26T11:02:21.308Z,99969.46
2019-06-26T11:04:54.525Z,99976.16
2019-06-26T11:07:27.897Z,99972.67
2019-06-26T11:10:01.151Z,99968.64
2019-06-26T11:12:34.292Z,99963.72
2019-06-26T11:15:07.915Z,99962.31
2019-06-26T11:17:41.031Z,99956.53
2019-06-26T11:20:14.682Z,99951.41
2019-06-26T11:22:48.041Z,99951.66
2019-06-26T11:25:21.840Z,99944.48
2019-06-26T11:27:54.963Z,99938.06
2019-06-26T11:30:29.505Z,99936.20
2019-06-26T11:33:02.630Z,99936.95
2019-06-26T11:35:35.717Z,99933.30
2019-06-26T11:38:09.008Z,99935.48
2019-06-26T11:40:42.185Z,99926.39
2019-06-26T11:43:15.300Z,99927.67
2019-06-26T11:45:48.599Z,99920.30
2019-06-26T11:48:21.654Z,99918.63
2019-06-26T11:50:54.729Z,99906.33
2019-06-26T11:53:27.918Z,99909.30
2019-06-26T11:56:01.179Z,99901.97
2019-06-26T11:58:34.252Z,99905.51
2019-06-26T12:01:07.656Z,99899.48
2019-06-26T12:03:40.849Z,99891.34
2019-06-26T12:06:18.860Z,99887.54
2019-06-26T12:08:48.841Z,99888.52
2019-06-26T12:11:22.065Z,99880.67
2019-06-26T12:13:55.057Z,99881.27
2019-06-26T12:16:28.313Z,99882.95
2019-06-26T12:19:01.491Z,99876.38
2019-06-26T12:21:34.866Z,99867.36
2019-06-26T12:24:08.037Z,99863.23
2019-06-26T12:26:41.161Z,99865.98
2019-06-26T12:29:14.233Z,99863.23
2019-06-26T12:31:47.439Z,99856.99
2019-06-26T12:34:20.566Z,99850.36
2019-06-26T12:36:53.637Z,99849.20
2019-06-26T12:39:26.702Z,99850.06
2019-06-26T12:42:00.035Z,99840.77
2019-06-26T12:44:33.222Z,99842.79
2019-06-26T12:47:06.413Z,99837.95
2019-06-26T12:49:39.631Z,99826.40
2019-06-26T12:52:16.757Z,99823.27
2019-06-26T12:54:47.783Z,99820.64
2019-06-26T12:57:21.062Z,99822.02
2019-06-26T12:59:57.587Z,99813.79
2019-06-26T13:02:29.022Z,99811.37
2019-06-26T13:05:02.366Z,99814.89
2019-06-26T13:07:35.413Z,99806.04
2019-06-26T13:10:09.019Z,99813.84
2019-06-26T13:12:45.676Z,99809.58
2019-06-26T13:15:18.323Z,99805.46
2019-06-26T13:17:51.497Z,99796.34
2019-06-26T13:20:24.690Z,99797.70
2019-06-26T13:22:57.731Z,99799.53
2019-06-26T13:25:30.896Z,99798.30
2019-06-26T13:28:03.980Z,99793.47
2019-06-26T13:30:38.112Z,99794.38
2019-06-26T13:33:11.158Z,99784.59
2019-06-26T13:35:44.551Z,99769.38
2019-06-26T13:38:17.661Z,99770.70
2019-06-26T13:40:50.777Z,99776.93
2019-06-26T13:43:23.818Z,99768.53
2019-06-26T13:45:58.861Z,99767.73
2019-06-26T13:48:31.499Z,99768.95
2019-06-26T13:51:09.506Z,99764.67
2019-06-26T13:53:39.241Z,99764.96
2019-06-26T13:56:12.371Z,99762.33
2019-06-26T13:58:45.519Z,99760.49
2019-06-26T14:01:18.628Z,99764.60
2019-06-26T14:03:51.751Z,99752.53
2019-06-26T14:06:24.796Z,99754.77
2019-06-26T14:08:58.252Z,99754.73
2019-06-26T14:11:31.303Z,99756.97
2019-06-26T14:14:04.444Z,99759.55
2019-06-26T14:16:37.724Z,99763.77
2019-06-26T14:19:10.986Z,99758.51
2019-06-26T14:21:44.134Z,99753.28
2019-06-26T14:24:17.398Z,99746.88
2019-06-26T14:26:50.712Z,99742.38
2019-06-26T14:29:23.799Z,99736.34
2019-06-26T14:31:56.919Z,99738.34
2019-06-26T14:34:29.994Z,99729.20
2019-06-26T14:37:03.211Z,99741.24
2019-06-26T14:39:36.206Z,99730.10
2019-06-26T14:42:09.314Z,99743.82
2019-06-26T14:44:42.429Z,99741.65
2019-06-26T14:47:15.548Z,99741.34
2019-06-26T14:49:48.538Z,99733.45
2019-06-26T14:52:21.638Z,99736.61
2019-06-26T14:54:54.878Z,99735.14
2019-06-26T14:57:28.003Z,99740.30
2019-06-26T15:00:01.033Z,99741.14
2019-06-26T15:02:34.357Z,99739.17
2019-06-26T15:05:07.849Z,99735.67
2019-06-26T15:07:41.097Z,99733.39
2019-06-26T15:10:14.374Z,99725.73
2019-06-26T15:12:47.754Z,99728.59
2019-06-26T15:15:21.088Z,99724.91
2019-06-26T15:17:54.234Z,99721.03
2019-06-26T15:20:27.974Z,99711.67
2019-06-26T15:23:01.327Z,99707.16
2019-06-26T15:25:34.612Z,99696.79
2019-06-26T15:28:10.392Z,99699.07
2019-06-26T15:30:42.658Z,99689.41
2019-06-26T15:33:15.947Z,99688.28
2019-06-26T15:35:49.180Z,99689.02
2019-06-26T15:38:22.444Z,99685.02
2019-06-26T15:40:55.481Z,99682.64
2019-06-26T15:43:28.653Z,99677.80
2019-06-26T15:46:01.732Z,99682.28
2019-06-26T15:48:34.905Z,99679.23
2019-06-26T15:51:07.965Z,99688.41
2019-06-26T15:53:41.012Z,99675.70
2019-06-26T15:56:14.067Z,99673.20
2019-06-26T15:58:47.212Z,99673.43
2019-06-26T16:01:20.326Z,99671.33
2019-06-26T16:03:53.516Z,99676.98
2019-06-26T16:06:26.601Z,99674.26
2019-06-26T16:08:59.729Z,99673.63
2019-06-26T16:11:32.792Z,99672.39
2019-06-26T16:14:06.015Z,99669.23
2019-06-26T16:16:40.917Z,99664.62
2019-06-26T16:19:15.695Z,99666.30
2019-06-26T16:21:48.804Z,99660.84
2019-06-26T16:24:21.997Z,99661.48
2019-06-26T16:26:54.985Z,99658.75
2019-06-26T16:29:28.244Z,99658.11
2019-06-26T16:32:01.521Z,99659.98
2019-06-26T16:34:34.846Z,99662.72
2019-06-26T16:37:07.829Z,99656.97
2019-06-26T16:39:41.157Z,99660.64
2019-06-26T16:42:14.354Z,99659.34
2019-06-26T16:44:47.781Z,99658.63
2019-06-26T16:47:20.990Z,99659.45
2019-06-26T16:49:54.181Z,99660.19
2019-06-26T16:52:27.339Z,99652.02
2019-06-26T16:55:01.931Z,99653.55
2019-06-26T16:57:35.147Z,99658.93
2019-06-26T17:00:10.358Z,99654.72
2019-06-26T17:02:43.598Z,99654.81
2019-06-26T17:05:16.935Z,99651.45
2019-06-26T17:07:50.150Z,99652.20
2019-06-26T17:10:23.347Z,99653.02
2019-06-26T17:12:56.486Z,99649.09
2019-06-26T17:15:29.715Z,99661.77
2019-06-26T17:18:03.146Z,99654.83
2019-06-26T17:20:36.631Z,99652.78
2019-06-26T17:23:09.763Z,99650.06
2019-06-26T17:25:43.061Z,99640.95
2019-06-26T17:28:16.288Z,99634.22
2019-06-26T17:30:52.779Z,99634.95
2019-06-26T17:33:24.127Z,99633.98
2019-06-26T17:35:57.358Z,99631.48
2019-06-26T17:38:30.512Z,99629.05
2019-06-26T17:41:03.661Z,99629.00
2019-06-26T17:43:36.758Z,99624.33
2019-06-26T17:46:10.050Z,99626.69
2019-06-26T17:48:43.123Z,99631.79
2019-06-26T17:51:16.139Z,99625.68
2019-06-26T17:53:49.451Z,99619.89
2019-06-26T17:56:22.562Z,99620.00
2019-06-26T17:58:55.742Z,99621.52
2019-06-26T18:01:28.727Z,99615.22
2019-06-26T18:04:01.893Z,99619.42
2019-06-26T18:06:34.973Z,99622.63
2019-06-26T18:09:12.200Z,99621.11
2019-06-26T18:11:43.951Z,99615.11
2019-06-26T18:14:17.256Z,99610.50
2019-06-26T18:16:50.290Z,99609.64
2019-06-26T18:19:23.539Z,99609.47
2019-06-26T18:21:56.602Z,99609.98
2019-06-26T18:24:29.751Z,99608.20
2019-06-26T18:27:02.869Z,99611.30
2019-06-26T18:29:36.010Z,99609.23
2019-06-26T18:32:09.235Z,99621.49
2019-06-26T18:34:42.490Z,99625.98
2019-06-26T18:37:15.532Z,99630.61
2019-06-26T18:39:48.628Z,99628.73
2019-06-26T18:42:21.837Z,99631.59
2019-06-26T18:44:54.909Z,99635.78
2019-06-26T18:47:27.939Z,99633.20
2019-06-26T18:50:01.194Z,99629.19
2019-06-26T18:52:34.295Z,99636.66
2019-06-26T18:55:07.616Z,99635.72
2019-06-26T18:57:40.632Z,99641.91
2019-06-26T19:00:13.921Z,99646.41
2019-06-26T19:02:46.903Z,99657.28
2019-06-26T19:05:20.014Z,99665.15
2019-06-26T19:07:53.037Z,99665.91
2019-06-26T19:10:26.077Z,99670.39
2019-06-26T19:12:59.116Z,99666.73
2019-06-26T19:15:32.173Z,99658.69
2019-06-26T19:18:05.299Z,99662.41
2019-06-26T19:20:38.344Z,99658.39
2019-06-26T19:23:11.330Z,99665.67
2019-06-26T19:25:44.482Z,99666.23
2019-06-26T19:29:18.248Z,99656.26
2019-06-26T19:31:51.417Z,99660.19
2019-06-26T19:34:25.295Z,99652.75
2019-06-26T19:36:58.669Z,99650.08
2019-06-26T19:39:32.692Z,99661.27
2019-06-26T19:42:07.055Z,99682.24
2019-06-26T19:44:40.986Z,99662.83
2019-06-26T19:47:14.430Z,99669.09
2019-06-26T19:49:48.363Z,99663.00
2019-06-26T19:52:22.214Z,99669.59
2019-06-26T19:54:55.236Z,99659.61
2019-06-26T19:57:29.096Z,99663.84
2019-06-26T20:00:03.132Z,99663.81
2019-06-26T20:02:37.131Z,99674.96
2019-06-26T20:05:10.352Z,99666.34
2019-06-26T20:07:44.253Z,99671.52
2019-06-26T20:10:17.773Z,99672.70
2019-06-26T20:12:51.684Z,99663.89
2019-06-26T20:15:24.846Z,99653.75
2019-06-26T20:17:58.846Z,99656.09
2019-06-26T20:20:32.302Z,99652.72
2019-06-26T20:23:07.225Z,99662.80
2019-06-26T20:25:41.205Z,99652.33
2019-06-26T20:28:14.422Z,99653.96
2019-06-26T20:30:48.344Z,99647.48
2019-06-26T20:33:21.649Z,99648.14
2019-06-26T20:35:55.540Z,99652.84
2019-06-26T20:38:28.894Z,99644.72
2019-06-26T20:41:02.826Z,99653.13
2019-06-26T20:43:35.928Z,99653.44
2019-06-26T20:46:09.936Z,99647.04
2019-06-26T20:48:43.169Z,99654.05
2019-06-26T20:51:20.688Z,99655.01
2019-06-26T20:53:53.592Z,99656.62
2019-06-26T20:56:27.928Z,99645.41
2019-06-26T20:59:02.272Z,99654.76
2019-06-26T21:01:36.912Z,99648.97
2019-06-26T21:04:10.964Z,99641.84
2019-06-26T21:06:44.411Z,99649.52
2019-06-26T21:09:18.543Z,99648.51
2019-06-26T21:11:52.601Z,99655.48
2019-06-26T21:14:26.041Z,99653.58
2019-06-26T21:17:00.287Z,99653.68
2019-06-26T21:19:34.542Z,99650.57
2019-06-26T21:22:09.166Z,99640.78
2019-06-26T21:24:43.409Z,99641.23
2019-06-26T21:27:18.549Z,99651.30
2019-06-26T21:29:52.770Z,99643.31
2019-06-26T21:32:26.832Z,99650.28
2019-06-26T21:35:00.275Z,99652.62
2019-06-26T21:37:34.428Z,99653.94
2019-06-26T21:40:08.936Z,99654.53
2019-06-26T21:42:43.018Z,99655.14
2019-06-26T21:45:19.930Z,99660.44
2019-06-26T21:47:52.353Z,99654.94
2019-06-26T21:50:28.862Z,99662.20
2019-06-26T21:53:02.838Z,99667.98
2019-06-26T21:55:37.547Z,99662.51
2019-06-26T21:58:11.956Z,99669.30
2019-06-26T22:00:46.846Z,99660.47
2019-06-26T22:03:21.327Z,99658.34
2019-06-26T22:05:55.382Z,99655.55
2019-06-26T22:08:30.136Z,99658.70
2019-06-26T22:11:04.744Z,99666.12
2019-06-26T22:13:38.927Z,99659.56
2019-06-26T22:16:13.150Z,99667.23
2019-06-26T22:18:47.123Z,99675.48
2019-06-26T22:21:21.543Z,99669.00
2019-06-26T22:23:55.597Z,99662.16
2019-06-26T22:26:28.785Z,99668.44
2019-06-26T22:29:02.879Z,99669.48
2019-06-26T22:31:36.755Z,99667.44
2019-06-26T22:34:11.436Z,99670.66
2019-06-26T22:36:51.694Z,99663.81
2019-06-26T22:39:21.304Z,99677.94
2019-06-26T22:41:54.662Z,99663.40
2019-06-26T22:44:28.608Z,99663.09
2019-06-26T22:47:01.961Z,99666.48
2019-06-26T22:49:35.962Z,99667.50
2019-06-26T22:52:09.339Z,99677.71
2019-06-26T22:54:43.240Z,99672.20
2019-06-26T22:57:17.228Z,99667.63
2019-06-26T22:59:50.494Z,99679.23
2019-06-26T23:02:24.526Z,99670.27
2019-06-26T23:04:57.961Z,99674.45
2019-06-26T23:07:31.770Z,99677.82
2019-06-26T23:10:07.410Z,99684.70
2019-06-26T23:12:41.251Z,99675.23
2019-06-26T23:15:15.787Z,99680.84
2019-06-26T23:17:49.845Z,99673.09
2019-06-26T23:20:23.113Z,99671.30
2019-06-26T23:22:57.097Z,99677.27
2019-06-26T23:25:30.313Z,99673.02
2019-06-26T23:28:04.292Z,99664.50
2019-06-26T23:30:37.519Z,99664.98
2019-06-26T23:33:11.534Z,99677.27
2019-06-26T23:35:44.617Z,99673.61
2019-06-26T23:38:18.707Z,99666.55
2019-06-26T23:40:52.291Z,99677.39
2019-06-26T23:43:26.478Z,99683.97
2019-06-26T23:46:00.568Z,99672.04
2019-06-26T23:48:33.785Z,99673.67
2019-06-26T23:51:07.751Z,99682.88
2019-06-26T23:53:41.078Z,99677.81
2019-06-26T23:56:15.188Z,99695.96
2019-06-26T23:58:48.486Z,99693.66
